createdAt,value
2023-01-22T00:03:54.729Z,6.22
2023-01-22T00:09:04.071Z,6.43
2023-01-22T00:14:07.693Z,3.05
2023-01-22T00:19:11.435Z,9.05
2023-01-22T00:24:16.251Z,4.03
2023-01-22T00:29:19.579Z,9.20
2023-01-22T00:34:22.865Z,5.57
2023-01-22T00:39:28.018Z,6.05
2023-01-22T00:44:31.692Z,4.85
2023-01-22T00:49:35.171Z,4.28
2023-01-22T00:54:39.838Z,6.40
2023-01-22T00:59:43.135Z,3.17
2023-01-22T01:04:46.996Z,8.00
2023-01-22T01:09:51.583Z,10.05
2023-01-22T01:14:56.791Z,10.43
2023-01-22T01:20:00.394Z,4.25
2023-01-22T01:25:05.825Z,8.88
2023-01-22T01:35:13.455Z,6.37
2023-01-22T01:40:19.061Z,5.25
2023-01-22T01:45:28.981Z,2.90
2023-01-22T01:50:32.706Z,7.70
2023-01-22T01:55:39.943Z,4.88
2023-01-22T02:00:44.761Z,7.78
2023-01-22T02:05:48.199Z,3.67
2023-01-22T02:10:53.944Z,4.88
2023-01-22T02:15:57.297Z,3.40
2023-01-22T02:21:02.275Z,4.13
2023-01-22T02:26:05.744Z,5.40
2023-01-22T02:31:09.230Z,6.60
2023-01-22T02:36:14.374Z,4.32
2023-01-22T02:41:18.133Z,4.75
2023-01-22T02:46:21.939Z,6.00
2023-01-22T02:51:28.003Z,3.40
2023-01-22T02:56:33.884Z,4.63
2023-01-22T03:01:37.533Z,4.53
2023-01-22T03:06:44.202Z,8.05
2023-01-22T03:11:47.727Z,3.85
2023-01-22T03:17:17.775Z,2.20
2023-01-22T03:22:22.688Z,6.07
2023-01-22T03:27:27.905Z,4.10
2023-01-22T03:32:31.837Z,2.40
2023-01-22T03:37:36.845Z,4.25
2023-01-22T03:42:40.803Z,3.22
2023-01-22T03:47:44.462Z,5.05
2023-01-22T03:53:00.396Z,2.60
2023-01-22T03:58:03.994Z,5.13
2023-01-22T04:03:07.513Z,4.93
2023-01-22T04:08:16.328Z,5.90
2023-01-22T04:13:20.351Z,6.40
2023-01-22T04:18:26.902Z,4.78
2023-01-22T04:23:49.968Z,5.40
2023-01-22T04:28:53.419Z,6.50
2023-01-22T04:33:58.893Z,8.02
2023-01-22T04:39:06.290Z,7.82
2023-01-22T04:44:10.385Z,6.22
2023-01-22T04:49:13.889Z,5.95
2023-01-22T04:54:19.933Z,4.32
2023-01-22T04:59:23.905Z,5.38
2023-01-22T05:04:27.383Z,6.60
2023-01-22T05:09:32.727Z,4.68
2023-01-22T05:14:37.094Z,6.00
2023-01-22T05:19:40.681Z,6.38
2023-01-22T05:24:50.613Z,5.93
2023-01-22T05:29:55.193Z,6.72
2023-01-22T05:35:37.074Z,9.10
2023-01-22T05:40:42.914Z,9.68
2023-01-22T05:51:15.519Z,3.55
2023-01-22T05:56:20.408Z,5.88
2023-01-22T06:01:23.910Z,6.45
2023-01-22T06:06:28.989Z,8.77
2023-01-22T06:11:33.956Z,8.70
2023-01-22T06:16:37.411Z,6.00
2023-01-22T06:21:48.125Z,7.07
2023-01-22T06:26:53.035Z,5.75
2023-01-22T06:31:58.136Z,5.07
2023-01-22T06:37:01.537Z,8.68
2023-01-22T06:42:09.763Z,7.78
2023-01-22T06:47:13.204Z,7.68
2023-01-22T06:52:16.745Z,7.22
2023-01-22T06:57:21.835Z,6.95
2023-01-22T07:02:25.245Z,6.15
2023-01-22T07:07:28.560Z,7.03
2023-01-22T07:12:33.525Z,7.32
2023-01-22T07:17:37.537Z,6.60
2023-01-22T07:22:40.819Z,9.27
2023-01-22T07:27:45.452Z,9.20
2023-01-22T07:32:48.691Z,9.18
2023-01-22T07:37:52.741Z,8.82
2023-01-22T07:42:57.482Z,9.45
2023-01-22T07:48:00.930Z,9.18
2023-01-22T07:53:04.278Z,7.70
2023-01-22T07:58:10.447Z,10.88
2023-01-22T08:03:14.683Z,13.23
2023-01-22T08:08:20.579Z,8.57
2023-01-22T08:13:25.372Z,8.82
2023-01-22T08:18:29.199Z,10.45
2023-01-22T08:23:32.509Z,8.95
2023-01-22T08:28:37.171Z,12.27
2023-01-22T08:33:40.534Z,14.00
2023-01-22T08:38:43.781Z,14.07
2023-01-22T08:43:49.353Z,12.93
2023-01-22T08:48:52.650Z,7.75
2023-01-22T08:53:55.889Z,7.93
2023-01-22T08:59:06.339Z,14.48
2023-01-22T09:04:10.917Z,9.68
2023-01-22T09:09:14.508Z,15.23
2023-01-22T09:14:19.195Z,14.30
2023-01-22T09:19:22.510Z,13.57
2023-01-22T09:24:25.954Z,13.90
2023-01-22T09:29:30.517Z,11.55
2023-01-22T09:34:34.275Z,14.35
2023-01-22T09:39:37.494Z,14.10
2023-01-22T09:44:45.361Z,13.07
2023-01-22T09:49:53.867Z,12.10
2023-01-22T09:54:57.165Z,19.38
2023-01-22T10:00:02.622Z,13.32
2023-01-22T10:05:23.786Z,14.60
2023-01-22T10:10:29.105Z,16.02
2023-01-22T10:15:33.767Z,13.85
2023-01-22T10:20:37.928Z,13.63
2023-01-22T10:25:42.666Z,11.20
2023-01-22T10:30:48.920Z,17.10
2023-01-22T10:35:56.641Z,17.15
2023-01-22T10:41:02.299Z,14.27
2023-01-22T10:46:17.262Z,12.15
2023-01-22T10:56:30.250Z,15.77
2023-01-22T11:01:36.513Z,12.45
2023-01-22T11:06:41.921Z,13.15
2023-01-22T11:11:48.976Z,17.05
2023-01-22T11:16:58.512Z,11.32
2023-01-22T11:22:06.407Z,15.25
2023-01-22T11:27:25.626Z,14.45
2023-01-22T11:32:52.409Z,12.40
2023-01-22T11:38:06.805Z,16.15
2023-01-22T11:43:21.877Z,11.70
2023-01-22T11:48:50.077Z,12.65
2023-01-22T11:54:12.267Z,13.63
2023-01-22T11:59:32.044Z,15.88
2023-01-22T12:04:57.045Z,12.10
2023-01-22T12:10:13.475Z,14.93
2023-01-22T12:15:33.307Z,11.35
2023-01-22T12:21:04.513Z,13.45
2023-01-22T12:26:14.473Z,13.68
2023-01-22T12:31:24.176Z,10.52
2023-01-22T12:36:29.653Z,11.55
2023-01-22T12:41:49.222Z,16.40
2023-01-22T12:47:02.039Z,12.85
2023-01-22T12:52:32.341Z,10.43
2023-01-22T12:57:40.735Z,14.32
2023-01-22T13:02:44.035Z,17.33
2023-01-22T13:07:50.161Z,12.18
2023-01-22T13:12:55.647Z,16.08
2023-01-22T13:18:08.199Z,12.48
2023-01-22T13:23:14.958Z,13.30
2023-01-22T13:28:18.981Z,18.65
2023-01-22T13:33:23.393Z,13.23
2023-01-22T13:38:30.817Z,11.07
2023-01-22T13:43:35.095Z,12.65
2023-01-22T13:48:38.683Z,14.13
2023-01-22T13:53:45.837Z,13.80
2023-01-22T13:58:49.754Z,11.63
2023-01-22T14:03:59.354Z,15.02
2023-01-22T14:09:04.309Z,20.70
2023-01-22T14:14:19.630Z,19.35
2023-01-22T14:19:23.208Z,19.48
2023-01-22T14:24:27.822Z,12.88
2023-01-22T14:29:31.122Z,14.90
2023-01-22T14:34:34.448Z,12.77
2023-01-22T14:39:39.157Z,20.98
2023-01-22T14:44:42.646Z,18.10
2023-01-22T14:49:45.939Z,16.25
2023-01-22T14:54:52.040Z,18.00
2023-01-22T14:59:55.438Z,15.27
2023-01-22T15:04:58.738Z,20.27
2023-01-22T15:10:04.707Z,15.68
2023-01-22T15:15:09.200Z,22.77
2023-01-22T15:20:12.604Z,16.23
2023-01-22T15:25:17.988Z,22.67
2023-01-22T15:30:21.693Z,14.05
2023-01-22T15:35:25.159Z,19.27
2023-01-22T15:40:29.819Z,15.55
2023-01-22T15:45:33.252Z,20.40
2023-01-22T15:50:36.681Z,28.15
2023-01-22T15:55:47.810Z,18.92
2023-01-22T16:00:51.048Z,20.83
2023-01-22T16:05:54.332Z,14.93
2023-01-22T16:10:58.994Z,18.17
2023-01-22T16:16:04.619Z,12.27
2023-01-22T16:21:09.075Z,18.77
2023-01-22T16:26:18.415Z,25.73
2023-01-22T16:31:24.887Z,13.70
2023-01-22T16:36:29.771Z,18.10
2023-01-22T16:41:36.460Z,19.23
2023-01-22T16:46:41.222Z,21.45
2023-01-22T16:51:46.650Z,20.48
2023-01-22T16:56:51.314Z,17.13
2023-01-22T17:01:55.228Z,23.10
2023-01-22T17:07:00.047Z,22.90
2023-01-22T17:12:06.156Z,15.10
2023-01-22T17:17:09.636Z,18.50
2023-01-22T17:22:13.342Z,13.43
2023-01-22T17:27:19.146Z,22.88
2023-01-22T17:32:22.834Z,20.35
2023-01-22T17:37:26.069Z,16.98
2023-01-22T17:42:31.014Z,18.10
2023-01-22T17:47:34.302Z,17.65
2023-01-22T17:52:37.727Z,17.08
2023-01-22T17:57:42.304Z,22.33
2023-01-22T18:02:45.618Z,21.13
2023-01-22T18:07:48.926Z,19.85
2023-01-22T18:12:53.518Z,23.98
2023-01-22T18:17:56.815Z,23.33
2023-01-22T18:23:00.251Z,20.90
2023-01-22T18:28:05.636Z,30.88
2023-01-22T18:33:10.146Z,25.88
2023-01-22T18:38:13.413Z,18.17
2023-01-22T18:43:18.633Z,19.85
2023-01-22T18:53:26.732Z,18.60
2023-01-22T18:58:34.017Z,18.45
2023-01-22T19:03:38.362Z,18.60
2023-01-22T19:08:43.010Z,16.10
2023-01-22T19:13:48.816Z,18.40
2023-01-22T19:18:55.313Z,21.45
2023-01-22T19:24:01.714Z,23.25
2023-01-22T19:29:10.992Z,17.95
2023-01-22T19:34:23.163Z,17.75
2023-01-22T19:39:27.161Z,21.60
2023-01-22T19:44:33.885Z,23.17
2023-01-22T19:49:38.010Z,19.52
2023-01-22T19:54:47.263Z,21.52
2023-01-22T19:59:57.310Z,24.10
2023-01-22T20:05:02.502Z,17.60
2023-01-22T20:10:06.712Z,16.13
2023-01-22T20:15:11.967Z,17.07
2023-01-22T20:20:15.796Z,27.33
2023-01-22T20:25:21.917Z,17.92
2023-01-22T20:30:27.554Z,18.27
2023-01-22T20:35:32.088Z,18.58
2023-01-22T20:40:38.705Z,17.65
2023-01-22T20:45:43.751Z,18.13
2023-01-22T20:50:47.157Z,18.15
2023-01-22T20:55:59.396Z,16.95
2023-01-22T21:01:05.739Z,16.70
2023-01-22T21:06:13.568Z,17.58
2023-01-22T21:11:20.231Z,18.88
2023-01-22T21:16:27.284Z,13.18
2023-01-22T21:21:31.935Z,17.40
2023-01-22T21:26:35.384Z,14.57
2023-01-22T21:31:40.128Z,19.23
2023-01-22T21:36:45.584Z,17.98
2023-01-22T21:41:49.820Z,18.42
2023-01-22T21:46:54.537Z,17.13
2023-01-22T21:51:59.568Z,19.95
2023-01-22T21:57:03.895Z,18.50
2023-01-22T22:02:13.613Z,19.27
2023-01-22T22:07:18.041Z,20.30
2023-01-22T22:12:21.474Z,21.17
2023-01-22T22:17:26.116Z,16.20
2023-01-22T22:22:29.682Z,19.95
2023-01-22T22:27:32.992Z,22.73
2023-01-22T22:32:37.960Z,29.73
2023-01-22T22:37:41.157Z,24.65
2023-01-22T22:42:44.722Z,27.20
2023-01-22T22:47:49.284Z,18.23
2023-01-22T22:52:52.540Z,21.42
2023-01-22T22:57:55.783Z,17.73
2023-01-22T23:03:00.342Z,23.35
2023-01-22T23:08:04.282Z,26.88
2023-01-22T23:13:07.579Z,22.10
2023-01-22T23:18:12.335Z,24.58
2023-01-22T23:23:15.942Z,17.83
2023-01-22T23:28:19.882Z,28.77
2023-01-22T23:33:24.621Z,19.38
2023-01-22T23:38:27.920Z,25.63
2023-01-22T23:43:31.837Z,21.20
2023-01-22T23:48:36.435Z,26.23
2023-01-22T23:53:41.648Z,23.02
